createdAt,value
2019-01-30T00:00:32.973Z,98172.31
2019-01-30T00:01:12.782Z,98160.91
2019-01-30T00:01:48.171Z,98169.20
2019-01-30T00:02:23.672Z,98165.59
2019-01-30T00:02:59.183Z,98160.67
2019-01-30T00:03:34.636Z,98163.41
2019-01-30T00:04:10.274Z,98157.69
2019-01-30T00:04:45.944Z,98157.69
2019-01-30T00:05:21.402Z,98158.31
2019-01-30T00:05:56.830Z,98157.13
2019-01-30T00:06:32.542Z,98150.56
2019-01-30T00:07:07.974Z,98103.86
2019-01-30T00:07:43.366Z,98154.63
2019-01-30T00:08:19.025Z,98149.30
2019-01-30T00:08:54.434Z,98152.23
2019-01-30T00:09:29.988Z,98151.20
2019-01-30T00:10:07.222Z,98152.00
2019-01-30T00:10:42.611Z,98148.46
2019-01-30T00:11:18.295Z,98142.25
2019-01-30T00:11:53.956Z,98144.59
2019-01-30T00:12:29.416Z,98139.47
2019-01-30T00:13:05.483Z,98145.20
2019-01-30T00:13:40.976Z,98137.05
2019-01-30T00:14:16.709Z,98137.73
2019-01-30T00:14:52.677Z,98144.84
2019-01-30T00:15:28.223Z,98140.03
2019-01-30T00:16:04.086Z,98139.55
2019-01-30T00:16:39.480Z,98139.55
2019-01-30T00:17:15.195Z,98136.57
2019-01-30T00:17:50.825Z,98138.77
2019-01-30T00:18:26.240Z,98127.27
2019-01-30T00:19:01.960Z,98130.09
2019-01-30T00:19:37.642Z,98131.13
2019-01-30T00:20:13.426Z,98127.66
2019-01-30T00:20:48.851Z,98125.64
2019-01-30T00:21:24.316Z,98126.91
2019-01-30T00:21:59.789Z,98122.53
2019-01-30T00:22:35.184Z,98114.15
2019-01-30T00:23:10.612Z,98115.06
2019-01-30T00:23:46.048Z,98117.73
2019-01-30T00:24:21.437Z,98123.17
2019-01-30T00:24:56.906Z,98119.16
2019-01-30T00:25:32.626Z,98112.71
2019-01-30T00:26:08.046Z,98119.00
2019-01-30T00:26:43.506Z,98114.50
2019-01-30T00:27:18.938Z,98108.70
2019-01-30T00:27:54.338Z,98115.10
2019-01-30T00:28:29.810Z,98117.88
2019-01-30T00:29:05.444Z,98111.41
2019-01-30T00:29:41.079Z,98111.92
2019-01-30T00:30:17.155Z,98113.47
2019-01-30T00:30:52.554Z,98110.92
2019-01-30T00:31:28.197Z,98111.48
2019-01-30T00:32:04.070Z,98108.77
2019-01-30T00:32:39.725Z,98110.64
2019-01-30T00:33:15.136Z,98111.96
2019-01-30T00:33:50.534Z,98107.20
2019-01-30T00:34:26.484Z,98106.08
2019-01-30T00:35:02.313Z,98104.13
2019-01-30T00:35:37.714Z,98100.07
2019-01-30T00:36:13.426Z,98107.42
2019-01-30T00:36:49.081Z,98100.35
2019-01-30T00:37:24.489Z,98103.37
2019-01-30T00:37:59.974Z,98095.31
2019-01-30T00:38:35.415Z,98101.42
2019-01-30T00:39:11.110Z,98101.42
2019-01-30T00:39:46.775Z,98099.00
2019-01-30T00:40:22.624Z,98098.13
2019-01-30T00:40:58.069Z,98097.73
2019-01-30T00:41:33.560Z,98101.94
2019-01-30T00:42:09.080Z,98086.91
2019-01-30T00:42:44.520Z,98093.08
2019-01-30T00:43:20.174Z,98094.75
2019-01-30T00:43:55.624Z,98088.51
2019-01-30T00:44:32.119Z,98082.11
2019-01-30T00:45:10.019Z,98091.80
2019-01-30T00:45:45.690Z,98088.91
2019-01-30T00:46:21.167Z,98087.63
2019-01-30T00:46:56.712Z,98089.30
2019-01-30T00:47:34.884Z,98084.56
2019-01-30T00:48:09.592Z,98083.73
2019-01-30T00:48:44.993Z,98082.89
2019-01-30T00:49:20.491Z,98076.73
2019-01-30T00:49:56.148Z,98086.64
2019-01-30T00:50:31.865Z,98080.16
2019-01-30T00:51:07.266Z,98078.62
2019-01-30T00:51:42.932Z,98074.88
2019-01-30T00:52:18.599Z,98080.48
2019-01-30T00:52:54.025Z,98081.75
2019-01-30T00:53:30.069Z,98073.20
2019-01-30T00:54:05.627Z,98073.20
2019-01-30T00:54:41.014Z,98070.31
2019-01-30T00:55:16.538Z,98068.40
2019-01-30T00:55:51.936Z,98076.98
2019-01-30T00:56:27.359Z,98077.17
2019-01-30T00:57:02.790Z,98072.48
2019-01-30T00:57:38.192Z,98072.56
2019-01-30T00:58:13.851Z,98070.31
2019-01-30T00:58:49.814Z,98066.49
2019-01-30T00:59:25.496Z,98070.11
2019-01-30T01:00:00.979Z,98067.65
2019-01-30T01:00:36.514Z,98062.23
2019-01-30T01:01:11.943Z,98061.56
2019-01-30T01:01:47.612Z,98068.25
2019-01-30T01:02:22.990Z,98061.05
2019-01-30T01:02:58.512Z,98054.41
2019-01-30T01:03:33.950Z,98056.72
2019-01-30T01:04:09.330Z,98063.08
2019-01-30T01:04:44.725Z,98054.89
2019-01-30T01:05:20.595Z,98060.45
2019-01-30T01:05:56.005Z,98055.53
2019-01-30T01:06:31.489Z,98060.81
2019-01-30T01:07:06.996Z,98063.70
2019-01-30T01:07:42.923Z,98058.07
2019-01-30T01:08:18.311Z,98054.38
2019-01-30T01:08:53.780Z,98051.13
2019-01-30T01:09:29.208Z,98050.52
2019-01-30T01:10:06.655Z,98054.33
2019-01-30T01:10:42.128Z,98043.64
2019-01-30T01:11:17.595Z,98045.52
2019-01-30T01:11:52.976Z,98048.93
2019-01-30T01:12:28.663Z,98051.39
2019-01-30T01:13:04.353Z,98052.86
2019-01-30T01:13:40.006Z,98047.02
2019-01-30T01:14:15.405Z,98049.04
2019-01-30T01:14:50.779Z,98049.68
2019-01-30T01:15:26.195Z,98045.07
2019-01-30T01:16:02.068Z,98045.12
2019-01-30T01:16:37.474Z,98043.76
2019-01-30T01:17:12.862Z,98043.69
2019-01-30T01:17:48.371Z,98043.69
2019-01-30T01:18:24.031Z,98039.59
2019-01-30T01:18:59.801Z,98046.42
2019-01-30T01:19:35.248Z,98047.02
2019-01-30T01:20:12.706Z,98027.87
2019-01-30T01:20:48.355Z,98034.39
2019-01-30T01:21:23.735Z,98038.52
2019-01-30T01:21:59.245Z,98038.64
2019-01-30T01:22:34.948Z,98037.05
2019-01-30T01:23:10.624Z,98032.00
2019-01-30T01:23:46.240Z,98039.88
2019-01-30T01:24:21.886Z,98033.72
2019-01-30T01:24:57.302Z,98036.41
2019-01-30T01:25:32.801Z,98035.73
2019-01-30T01:26:08.485Z,98036.30
2019-01-30T01:26:43.912Z,98035.19
2019-01-30T01:27:19.290Z,98037.25
2019-01-30T01:27:54.705Z,98036.02
2019-01-30T01:28:30.122Z,98037.09
2019-01-30T01:29:05.841Z,98035.58
2019-01-30T01:29:41.224Z,98034.59
2019-01-30T01:30:25.405Z,98030.09
2019-01-30T01:30:56.415Z,98028.23
2019-01-30T01:31:31.816Z,98021.59
2019-01-30T01:32:07.229Z,98021.23
2019-01-30T01:32:42.607Z,98020.72
2019-01-30T01:33:18.009Z,98026.44
2019-01-30T01:33:53.404Z,98018.45
2019-01-30T01:34:29.162Z,98016.98
2019-01-30T01:35:05.684Z,98010.44
2019-01-30T01:35:41.053Z,98013.26
2019-01-30T01:36:16.683Z,98015.08
2019-01-30T01:36:52.071Z,98015.76
2019-01-30T01:37:27.483Z,98020.20
2019-01-30T01:38:02.924Z,98022.07
2019-01-30T01:38:38.352Z,98018.34
2019-01-30T01:39:13.734Z,98015.63
2019-01-30T01:39:50.947Z,98019.13
2019-01-30T01:40:26.396Z,98005.74
2019-01-30T01:41:01.815Z,98009.45
2019-01-30T01:41:37.459Z,98004.91
2019-01-30T01:42:12.869Z,98012.06
2019-01-30T01:42:48.575Z,98004.91
2019-01-30T01:43:24.005Z,98006.91
2019-01-30T01:43:59.438Z,98001.65
2019-01-30T01:44:35.094Z,98008.69
2019-01-30T01:45:13.168Z,97995.61
2019-01-30T01:45:48.820Z,97996.64
2019-01-30T01:46:24.231Z,97993.19
2019-01-30T01:46:59.921Z,97997.13
2019-01-30T01:47:35.422Z,97994.50
2019-01-30T01:48:10.850Z,97984.66
2019-01-30T01:48:46.259Z,97990.38
2019-01-30T01:49:22.014Z,97983.50
2019-01-30T01:49:57.447Z,97940.66
2019-01-30T01:50:33.106Z,97983.58
2019-01-30T01:51:08.617Z,97979.22
2019-01-30T01:51:44.090Z,97984.17
2019-01-30T01:52:19.564Z,97981.20
2019-01-30T01:52:54.948Z,97980.09
2019-01-30T01:53:30.504Z,97970.16
2019-01-30T01:54:05.918Z,97976.63
2019-01-30T01:54:41.287Z,97976.59
2019-01-30T01:55:16.877Z,97977.16
2019-01-30T01:55:52.508Z,97969.41
2019-01-30T01:56:27.943Z,97973.41
2019-01-30T01:57:03.335Z,97966.19
2019-01-30T01:57:38.745Z,97964.16
2019-01-30T01:58:14.443Z,97968.48
2019-01-30T01:58:49.828Z,97967.14
2019-01-30T01:59:25.246Z,97964.91
2019-01-30T02:00:00.753Z,97962.89
2019-01-30T02:00:36.188Z,97958.44
2019-01-30T02:01:11.588Z,97971.98
2019-01-30T02:01:47.059Z,97967.45
2019-01-30T02:02:22.719Z,97955.66
2019-01-30T02:02:58.559Z,97951.73
2019-01-30T02:03:34.019Z,97958.29
2019-01-30T02:04:09.414Z,97953.13
2019-01-30T02:04:44.850Z,97953.25
2019-01-30T02:05:21.566Z,97944.59
2019-01-30T02:05:57.224Z,97951.45
2019-01-30T02:06:32.618Z,97938.75
2019-01-30T02:07:08.006Z,97935.05
2019-01-30T02:07:43.697Z,97939.39
2019-01-30T02:08:19.068Z,97928.98
2019-01-30T02:08:54.510Z,97941.25
2019-01-30T02:09:29.943Z,97932.00
2019-01-30T02:10:07.079Z,97931.77
2019-01-30T02:10:42.470Z,97930.05
2019-01-30T02:11:17.852Z,97929.72
2019-01-30T02:11:53.227Z,97928.10
2019-01-30T02:12:28.989Z,97919.20
2019-01-30T02:13:04.826Z,97919.20
2019-01-30T02:13:40.478Z,97924.05
2019-01-30T02:14:16.117Z,97918.97
2019-01-30T02:14:51.505Z,97910.95
2019-01-30T02:15:27.022Z,97918.14
2019-01-30T02:16:02.551Z,97918.58
2019-01-30T02:16:37.946Z,97909.81
2019-01-30T02:17:13.341Z,97917.55
2019-01-30T02:17:49.002Z,97916.99
2019-01-30T02:18:24.703Z,97899.08
2019-01-30T02:19:00.280Z,97899.08
2019-01-30T02:19:36.015Z,97906.70
2019-01-30T02:20:14.678Z,97906.70
2019-01-30T02:20:50.039Z,97910.75
2019-01-30T02:21:25.441Z,97909.97
2019-01-30T02:22:01.381Z,97908.69
2019-01-30T02:22:36.771Z,97903.41
2019-01-30T02:23:12.252Z,97901.31
2019-01-30T02:23:47.658Z,97900.16
2019-01-30T02:24:23.345Z,97900.39
2019-01-30T02:24:58.760Z,97899.64
2019-01-30T02:25:34.170Z,97901.38
2019-01-30T02:26:09.791Z,97892.92
2019-01-30T02:26:45.444Z,97894.63
2019-01-30T02:27:20.845Z,97888.80
2019-01-30T02:27:56.831Z,97885.62
2019-01-30T02:28:32.238Z,97891.55
2019-01-30T02:29:07.748Z,97883.44
2019-01-30T02:29:43.147Z,97884.06
2019-01-30T02:30:20.647Z,97887.08
2019-01-30T02:30:56.157Z,97884.10
2019-01-30T02:31:31.712Z,97884.70
2019-01-30T02:32:07.393Z,97845.25
2019-01-30T02:32:42.780Z,97884.98
2019-01-30T02:33:18.202Z,97882.59
2019-01-30T02:33:53.753Z,97879.45
2019-01-30T02:34:29.484Z,97892.83
2019-01-30T02:35:05.732Z,97875.89
2019-01-30T02:35:41.139Z,97875.89
2019-01-30T02:36:16.837Z,97871.69
2019-01-30T02:36:58.615Z,97871.69
2019-01-30T02:37:34.375Z,97874.33
2019-01-30T02:38:09.764Z,97866.87
2019-01-30T02:38:45.191Z,97881.89
2019-01-30T02:39:20.872Z,97876.77
2019-01-30T02:39:56.299Z,97879.30
2019-01-30T02:40:31.885Z,97878.12
2019-01-30T02:41:07.360Z,97878.68
2019-01-30T02:41:43.033Z,97876.62
2019-01-30T02:42:18.451Z,97868.38
2019-01-30T02:42:54.216Z,97869.64
2019-01-30T02:43:29.988Z,97867.10
2019-01-30T02:44:05.563Z,97868.34
2019-01-30T02:44:40.969Z,97866.98
2019-01-30T02:45:18.375Z,97868.25
2019-01-30T02:45:54.214Z,97860.63
2019-01-30T02:46:30.455Z,97862.13
2019-01-30T02:47:05.961Z,97859.84
2019-01-30T02:47:41.391Z,97860.63
2019-01-30T02:48:16.838Z,97857.83
2019-01-30T02:48:52.255Z,97856.16
2019-01-30T02:49:27.785Z,97859.63
2019-01-30T02:50:03.464Z,97852.34
2019-01-30T02:50:38.914Z,97853.17
2019-01-30T02:51:14.341Z,97852.78
2019-01-30T02:51:49.771Z,97857.64
2019-01-30T02:52:25.187Z,97850.24
2019-01-30T02:53:00.624Z,97853.09
2019-01-30T02:53:36.126Z,97852.13
2019-01-30T02:54:11.544Z,97847.48
2019-01-30T02:54:46.972Z,97844.19
2019-01-30T02:55:22.476Z,97849.01
2019-01-30T02:55:57.952Z,97848.35
2019-01-30T02:56:33.688Z,97847.30
2019-01-30T02:57:09.220Z,97846.95
2019-01-30T02:57:44.609Z,97852.95
2019-01-30T02:58:20.026Z,97840.38
2019-01-30T02:58:55.935Z,97851.50
2019-01-30T02:59:31.416Z,97848.61
2019-01-30T03:00:09.179Z,97840.37
2019-01-30T03:00:44.893Z,97850.09
2019-01-30T03:01:20.928Z,97830.73
2019-01-30T03:02:14.006Z,97830.73
2019-01-30T03:02:49.549Z,97831.34
2019-01-30T03:03:24.941Z,97840.20
2019-01-30T03:04:00.780Z,97826.30
2019-01-30T03:04:36.271Z,97831.00
2019-01-30T03:05:12.381Z,97824.64
2019-01-30T03:05:47.808Z,97823.33
2019-01-30T03:06:23.238Z,97824.81
2019-01-30T03:06:58.764Z,97827.83
2019-01-30T03:07:34.350Z,97820.03
2019-01-30T03:08:10.045Z,97817.97
2019-01-30T03:08:45.608Z,97824.20
2019-01-30T03:09:21.323Z,97825.38
2019-01-30T03:09:57.083Z,97822.89
2019-01-30T03:10:32.572Z,97831.61
2019-01-30T03:11:08.306Z,97827.02
2019-01-30T03:11:43.758Z,97831.73
2019-01-30T03:12:19.188Z,97832.79
2019-01-30T03:12:54.607Z,97834.77
2019-01-30T03:13:30.053Z,97832.05
2019-01-30T03:14:05.511Z,97827.97
2019-01-30T03:14:40.940Z,97827.58
2019-01-30T03:15:16.929Z,97833.14
2019-01-30T03:15:52.630Z,97832.00
2019-01-30T03:16:28.093Z,97830.38
2019-01-30T03:17:03.580Z,97834.81
2019-01-30T03:17:39.001Z,97828.76
2019-01-30T03:18:14.932Z,97830.77
2019-01-30T03:18:50.661Z,97822.75
2019-01-30T03:19:26.482Z,97824.20
2019-01-30T03:20:02.281Z,97832.93
2019-01-30T03:20:37.968Z,97833.14
2019-01-30T03:21:13.405Z,97833.49
2019-01-30T03:21:48.838Z,97834.47
2019-01-30T03:22:24.529Z,97834.84
2019-01-30T03:23:00.088Z,97836.69
2019-01-30T03:23:35.553Z,97841.91
2019-01-30T03:24:11.025Z,97831.34
2019-01-30T03:24:46.423Z,97841.83
2019-01-30T03:25:22.982Z,97834.38
2019-01-30T03:25:59.010Z,97841.83
2019-01-30T03:26:34.457Z,97843.10
2019-01-30T03:27:10.428Z,97845.63
2019-01-30T03:27:45.894Z,97841.64
2019-01-30T03:28:21.419Z,97843.14
2019-01-30T03:28:56.910Z,97844.84
2019-01-30T03:29:32.731Z,97838.92
2019-01-30T03:30:11.783Z,97832.26
2019-01-30T03:30:47.223Z,97841.59
2019-01-30T03:31:22.748Z,97842.56
2019-01-30T03:31:58.523Z,97840.32
2019-01-30T03:32:34.025Z,97839.80
2019-01-30T03:33:09.451Z,97839.05
2019-01-30T03:33:45.166Z,97832.97
2019-01-30T03:34:20.607Z,97835.81
2019-01-30T03:34:56.366Z,97829.23
2019-01-30T03:35:32.107Z,97837.00
2019-01-30T03:36:07.565Z,97832.23
2019-01-30T03:36:42.988Z,97834.89
2019-01-30T03:37:18.507Z,97836.22
2019-01-30T03:37:53.924Z,97830.17
2019-01-30T03:38:29.423Z,97833.33
2019-01-30T03:39:07.740Z,97830.91
2019-01-30T03:39:43.430Z,97836.96
2019-01-30T03:40:19.373Z,97834.86
2019-01-30T03:40:54.817Z,97827.53
2019-01-30T03:41:30.586Z,97834.41
2019-01-30T03:42:06.263Z,97832.00
2019-01-30T03:42:41.674Z,97835.47
2019-01-30T03:43:17.095Z,97828.00
2019-01-30T03:43:52.507Z,97834.98
2019-01-30T03:44:28.069Z,97829.12
2019-01-30T03:45:04.429Z,97834.55
2019-01-30T03:45:39.987Z,97832.09
2019-01-30T03:46:15.674Z,97826.70
2019-01-30T03:46:51.378Z,97830.95
2019-01-30T03:47:26.849Z,97828.89
2019-01-30T03:48:02.345Z,97829.29
2019-01-30T03:48:38.078Z,97824.69
2019-01-30T03:49:13.596Z,97829.16
2019-01-30T03:49:49.308Z,97820.86
2019-01-30T03:50:25.064Z,97831.47
2019-01-30T03:51:00.493Z,97829.16
2019-01-30T03:51:36.073Z,97829.72
2019-01-30T03:52:11.496Z,97820.91
2019-01-30T03:52:46.955Z,97826.95
2019-01-30T03:53:22.456Z,97825.11
2019-01-30T03:53:58.247Z,97817.66
2019-01-30T03:54:34.022Z,97821.74
2019-01-30T03:55:10.889Z,97819.34
2019-01-30T03:55:46.299Z,97821.98
2019-01-30T03:56:22.067Z,97815.61
2019-01-30T03:56:57.579Z,97815.90
2019-01-30T03:57:33.325Z,97813.13
2019-01-30T03:58:08.775Z,97816.77
2019-01-30T03:58:44.197Z,97814.80
2019-01-30T03:59:19.869Z,97823.14
2019-01-30T03:59:55.409Z,97824.06
2019-01-30T04:00:30.977Z,97820.20
2019-01-30T04:01:06.697Z,97820.25
2019-01-30T04:01:42.105Z,97815.16
2019-01-30T04:02:17.521Z,97815.95
2019-01-30T04:02:53.167Z,97819.03
2019-01-30T04:03:28.610Z,97819.69
2019-01-30T04:04:04.308Z,97818.49
2019-01-30T04:04:39.774Z,97819.20
2019-01-30T04:05:15.455Z,97820.03
2019-01-30T04:05:50.868Z,97821.94
2019-01-30T04:06:26.465Z,97815.95
2019-01-30T04:07:02.054Z,97815.80
2019-01-30T04:07:37.479Z,97817.61
2019-01-30T04:08:13.201Z,97818.49
2019-01-30T04:08:48.684Z,97819.53
2019-01-30T04:09:24.100Z,97808.25
2019-01-30T04:09:59.738Z,97811.79
2019-01-30T04:10:35.170Z,97814.47
2019-01-30T04:11:10.798Z,97813.14
2019-01-30T04:11:46.170Z,97810.86
2019-01-30T04:12:21.543Z,97814.41
2019-01-30T04:12:57.361Z,97774.43
2019-01-30T04:13:32.822Z,97808.64
2019-01-30T04:14:08.505Z,97807.77
2019-01-30T04:14:43.954Z,97807.45
2019-01-30T04:15:19.411Z,97802.88
2019-01-30T04:15:55.172Z,97799.98
2019-01-30T04:16:30.808Z,97798.59
2019-01-30T04:17:06.282Z,97802.62
2019-01-30T04:17:41.790Z,97787.56
2019-01-30T04:18:17.589Z,97796.89
2019-01-30T04:18:53.304Z,97794.14
2019-01-30T04:19:29.074Z,97793.75
2019-01-30T04:20:05.231Z,97795.56
2019-01-30T04:20:40.608Z,97792.48
2019-01-30T04:21:15.991Z,97794.69
2019-01-30T04:21:51.369Z,97791.54
2019-01-30T04:22:26.794Z,97794.27
2019-01-30T04:23:02.266Z,97789.46
2019-01-30T04:23:37.731Z,97788.45
2019-01-30T04:24:13.230Z,97791.91
2019-01-30T04:24:48.623Z,97790.94
2019-01-30T04:25:24.007Z,97789.02
2019-01-30T04:25:59.443Z,97788.97
2019-01-30T04:26:34.886Z,97790.63
2019-01-30T04:27:10.546Z,97797.58
2019-01-30T04:27:45.942Z,97793.53
2019-01-30T04:28:21.314Z,97796.52
2019-01-30T04:28:56.798Z,97795.17
2019-01-30T04:29:32.322Z,97799.97
2019-01-30T04:30:11.304Z,97798.55
2019-01-30T04:30:46.943Z,97800.91
2019-01-30T04:31:22.612Z,97794.89
2019-01-30T04:31:58.318Z,97791.56
2019-01-30T04:32:33.766Z,97790.39
2019-01-30T04:33:09.160Z,97796.16
2019-01-30T04:33:44.644Z,97794.97
2019-01-30T04:34:20.060Z,97786.97
2019-01-30T04:34:55.484Z,97790.73
2019-01-30T04:35:30.936Z,97783.94
2019-01-30T04:36:06.369Z,97784.97
2019-01-30T04:36:41.759Z,97786.34
2019-01-30T04:37:17.432Z,97785.02
2019-01-30T04:37:53.083Z,97782.22
2019-01-30T04:38:28.691Z,97780.84
2019-01-30T04:39:05.590Z,97784.27
2019-01-30T04:39:40.998Z,97787.25
2019-01-30T04:40:18.315Z,97779.62
2019-01-30T04:40:54.008Z,97784.19
2019-01-30T04:41:29.542Z,97784.69
2019-01-30T04:42:05.108Z,97789.05
2019-01-30T04:42:40.510Z,97782.14
2019-01-30T04:43:16.146Z,97781.55
2019-01-30T04:43:51.537Z,97790.77
2019-01-30T04:44:27.277Z,97790.27
2019-01-30T04:45:02.992Z,97790.27
2019-01-30T04:45:38.390Z,97797.92
2019-01-30T04:46:13.773Z,97790.67
2019-01-30T04:46:49.468Z,97803.63
2019-01-30T04:47:25.180Z,97795.17
2019-01-30T04:48:00.639Z,97793.95
2019-01-30T04:48:36.085Z,97788.58
2019-01-30T04:49:11.477Z,97795.25
2019-01-30T04:49:46.903Z,97796.24
2019-01-30T04:50:22.322Z,97796.03
2019-01-30T04:50:58.139Z,97794.97
2019-01-30T04:51:33.598Z,97787.39
2019-01-30T04:52:09.258Z,97792.53
2019-01-30T04:52:44.739Z,97797.17
2019-01-30T04:53:20.415Z,97796.58
2019-01-30T04:53:55.919Z,97792.61
2019-01-30T04:54:31.452Z,97798.69
2019-01-30T04:55:07.079Z,97796.43
2019-01-30T04:55:42.481Z,97794.77
2019-01-30T04:56:18.159Z,97749.82
2019-01-30T04:56:53.559Z,97785.57
2019-01-30T04:57:29.233Z,97789.05
2019-01-30T04:58:04.781Z,97785.92
2019-01-30T04:58:40.193Z,97777.36
2019-01-30T04:59:15.574Z,97782.20
2019-01-30T04:59:50.969Z,97776.72
2019-01-30T05:00:26.710Z,97777.98
2019-01-30T05:01:02.473Z,97776.95
2019-01-30T05:01:49.230Z,97770.77
2019-01-30T05:02:15.342Z,97767.60
2019-01-30T05:02:51.097Z,97770.64
2019-01-30T05:03:26.491Z,97766.34
2019-01-30T05:04:02.147Z,97760.06
2019-01-30T05:04:37.596Z,97767.33
2019-01-30T05:05:13.419Z,97760.81
2019-01-30T05:05:48.791Z,97756.41
2019-01-30T05:06:24.436Z,97756.75
2019-01-30T05:06:59.914Z,97751.66
2019-01-30T05:07:35.357Z,97751.91
2019-01-30T05:08:11.015Z,97755.66
2019-01-30T05:08:46.426Z,97754.14
2019-01-30T05:09:21.795Z,97765.30
2019-01-30T05:09:57.232Z,97770.30
2019-01-30T05:10:32.662Z,97762.81
2019-01-30T05:11:08.059Z,97768.09
2019-01-30T05:11:43.458Z,97767.89
2019-01-30T05:12:18.863Z,97767.73
2019-01-30T05:12:54.292Z,97774.41
2019-01-30T05:13:29.705Z,97774.59
2019-01-30T05:14:05.425Z,97775.52
2019-01-30T05:14:41.109Z,97781.44
2019-01-30T05:15:17.869Z,97781.98
2019-01-30T05:15:53.345Z,97785.75
2019-01-30T05:16:28.775Z,97787.52
2019-01-30T05:17:04.309Z,97786.20
2019-01-30T05:17:39.705Z,97778.35
2019-01-30T05:18:15.418Z,97784.63
2019-01-30T05:18:50.809Z,97779.77
2019-01-30T05:19:26.295Z,97783.15
2019-01-30T05:20:01.852Z,97785.00
2019-01-30T05:20:37.267Z,97782.27
2019-01-30T05:21:12.674Z,97772.30
2019-01-30T05:21:48.061Z,97779.62
2019-01-30T05:22:23.787Z,97778.84
2019-01-30T05:22:59.261Z,97776.41
2019-01-30T05:23:34.705Z,97777.57
2019-01-30T05:24:10.101Z,97773.52
2019-01-30T05:24:45.764Z,97779.23
2019-01-30T05:25:21.154Z,97778.17
2019-01-30T05:25:59.939Z,97779.23
2019-01-30T05:26:34.767Z,97767.16
2019-01-30T05:27:10.184Z,97777.55
2019-01-30T05:27:45.581Z,97776.25
2019-01-30T05:28:21.251Z,97779.26
2019-01-30T05:28:56.807Z,97774.02
2019-01-30T05:29:32.552Z,97776.87
2019-01-30T05:30:11.640Z,97776.17
2019-01-30T05:30:47.108Z,97775.08
2019-01-30T05:31:22.509Z,97774.17
2019-01-30T05:32:01.267Z,97774.02
2019-01-30T05:32:35.416Z,97775.73
2019-01-30T05:33:10.832Z,97776.14
2019-01-30T05:33:46.253Z,97779.36
2019-01-30T05:34:21.652Z,97784.50
2019-01-30T05:34:57.193Z,97775.09
2019-01-30T05:35:32.640Z,97780.43
2019-01-30T05:36:08.077Z,97781.91
2019-01-30T05:36:43.727Z,97776.09
2019-01-30T05:37:19.394Z,97779.41
2019-01-30T05:37:55.104Z,97778.29
2019-01-30T05:38:30.651Z,97772.31
2019-01-30T05:39:09.676Z,97775.64
2019-01-30T05:39:45.145Z,97777.55
2019-01-30T05:40:20.630Z,97775.35
2019-01-30T05:40:56.047Z,97775.84
2019-01-30T05:41:31.735Z,97771.92
2019-01-30T05:42:07.248Z,97775.50
2019-01-30T05:42:42.663Z,97770.84
2019-01-30T05:43:18.065Z,97771.23
2019-01-30T05:43:53.705Z,97771.88
2019-01-30T05:44:29.158Z,97766.04
2019-01-30T05:45:05.600Z,97768.97
2019-01-30T05:45:40.972Z,97762.48
2019-01-30T05:46:16.473Z,97766.28
2019-01-30T05:46:51.969Z,97764.92
2019-01-30T05:47:27.402Z,97757.38
2019-01-30T05:48:02.836Z,97765.12
2019-01-30T05:48:38.259Z,97763.06
2019-01-30T05:49:13.682Z,97759.38
2019-01-30T05:49:49.216Z,97754.48
2019-01-30T05:50:24.611Z,97754.44
2019-01-30T05:51:00.092Z,97758.12
2019-01-30T05:51:35.827Z,97754.68
2019-01-30T05:52:11.480Z,97753.64
2019-01-30T05:52:47.219Z,97747.92
2019-01-30T05:53:22.708Z,97741.77
2019-01-30T05:53:58.182Z,97749.50
2019-01-30T05:54:34.004Z,97747.15
2019-01-30T05:55:09.789Z,97752.43
2019-01-30T05:55:45.194Z,97753.75
2019-01-30T05:56:20.578Z,97748.66
2019-01-30T05:56:56.032Z,97749.49
2019-01-30T05:57:31.439Z,97739.86
2019-01-30T05:58:07.047Z,97746.27
2019-01-30T05:58:42.434Z,97737.07
2019-01-30T05:59:18.196Z,97739.45
2019-01-30T05:59:53.640Z,97739.45
2019-01-30T06:00:34.621Z,97742.89
2019-01-30T06:01:10.009Z,97742.25
2019-01-30T06:01:45.469Z,97741.03
2019-01-30T06:02:20.933Z,97737.16
2019-01-30T06:02:56.554Z,97741.27
2019-01-30T06:03:31.996Z,97734.27
2019-01-30T06:04:07.374Z,97735.29
2019-01-30T06:04:42.773Z,97747.19
2019-01-30T06:05:18.468Z,97743.06
2019-01-30T06:05:53.891Z,97734.91
2019-01-30T06:06:29.376Z,97739.94
2019-01-30T06:07:04.827Z,97735.20
2019-01-30T06:07:40.207Z,97738.83
2019-01-30T06:08:15.768Z,97743.38
2019-01-30T06:08:51.461Z,97734.62
2019-01-30T06:09:26.869Z,97744.99
2019-01-30T06:10:02.380Z,97740.16
2019-01-30T06:10:37.821Z,97741.81
2019-01-30T06:11:13.225Z,97739.84
2019-01-30T06:11:48.617Z,97740.44
2019-01-30T06:12:24.004Z,97740.00
2019-01-30T06:12:59.458Z,97742.79
2019-01-30T06:13:34.921Z,97744.64
2019-01-30T06:14:10.384Z,97734.55
2019-01-30T06:14:46.046Z,97738.23
2019-01-30T06:15:21.794Z,97739.80
2019-01-30T06:15:57.654Z,97735.01
2019-01-30T06:16:33.057Z,97741.95
2019-01-30T06:17:09.754Z,97735.29
2019-01-30T06:17:45.505Z,97742.70
2019-01-30T06:18:20.876Z,97738.14
2019-01-30T06:18:56.520Z,97738.33
2019-01-30T06:19:32.060Z,97739.11
2019-01-30T06:20:10.305Z,97729.28
2019-01-30T06:20:45.716Z,97735.89
2019-01-30T06:21:21.113Z,97733.09
2019-01-30T06:21:56.518Z,97730.60
2019-01-30T06:22:31.932Z,97737.36
2019-01-30T06:23:07.356Z,97734.62
2019-01-30T06:23:42.869Z,97736.09
2019-01-30T06:24:18.208Z,97736.98
2019-01-30T06:24:53.589Z,97732.86
2019-01-30T06:25:29.205Z,97737.27
2019-01-30T06:26:04.630Z,97728.70
2019-01-30T06:26:40.135Z,97722.97
2019-01-30T06:27:15.756Z,97736.91
2019-01-30T06:27:51.136Z,97733.69
2019-01-30T06:28:29.289Z,97734.28
2019-01-30T06:29:03.864Z,97733.45
2019-01-30T06:29:39.287Z,97737.07
2019-01-30T06:30:16.282Z,97733.70
2019-01-30T06:30:51.703Z,97727.33
2019-01-30T06:31:27.211Z,97727.48
2019-01-30T06:32:02.953Z,97732.27
2019-01-30T06:32:38.380Z,97729.92
2019-01-30T06:33:13.801Z,97734.55
2019-01-30T06:33:49.201Z,97726.33
2019-01-30T06:34:24.592Z,97733.10
2019-01-30T06:35:00.004Z,97727.56
2019-01-30T06:35:35.755Z,97729.67
2019-01-30T06:36:11.246Z,97737.02
2019-01-30T06:36:46.652Z,97730.78
2019-01-30T06:37:22.170Z,97735.64
2019-01-30T06:37:57.867Z,97730.06
2019-01-30T06:38:33.386Z,97729.22
2019-01-30T06:39:09.488Z,97738.34
2019-01-30T06:39:45.562Z,97736.63
2019-01-30T06:40:26.004Z,97731.98
2019-01-30T06:41:01.612Z,97732.87
2019-01-30T06:41:37.039Z,97726.88
2019-01-30T06:42:12.708Z,97728.39
2019-01-30T06:42:48.376Z,97738.17
2019-01-30T06:43:24.038Z,97734.52
2019-01-30T06:43:59.642Z,97733.53
2019-01-30T06:44:35.055Z,97732.76
2019-01-30T06:45:10.691Z,97736.97
2019-01-30T06:45:46.652Z,97742.61
2019-01-30T06:46:22.249Z,97739.23
2019-01-30T06:46:57.689Z,97733.69
2019-01-30T06:47:33.145Z,97741.96
2019-01-30T06:48:08.548Z,97740.69
2019-01-30T06:48:44.060Z,97737.21
2019-01-30T06:49:19.481Z,97733.34
2019-01-30T06:49:54.897Z,97732.06
2019-01-30T06:50:30.498Z,97733.10
2019-01-30T06:51:05.984Z,97736.42
2019-01-30T06:51:41.369Z,97732.80
2019-01-30T06:52:16.777Z,97721.01
2019-01-30T06:52:52.730Z,97728.69
2019-01-30T06:53:28.481Z,97726.78
2019-01-30T06:54:03.985Z,97730.71
2019-01-30T06:54:41.067Z,97732.12
2019-01-30T06:55:16.522Z,97733.11
2019-01-30T06:55:52.207Z,97731.34
2019-01-30T06:56:27.657Z,97730.70
2019-01-30T06:57:03.110Z,97726.55
2019-01-30T06:57:38.812Z,97726.06
2019-01-30T06:58:14.217Z,97729.02
2019-01-30T06:58:49.609Z,97723.66
2019-01-30T06:59:25.042Z,97724.82